createdAt,value
2018-05-29T00:01:13.488Z,1018.8
2018-05-29T00:02:35.546Z,1018.85
2018-05-29T00:03:57.608Z,1018.81
2018-05-29T00:05:19.664Z,1018.81
2018-05-29T00:06:41.697Z,1018.83
2018-05-29T00:08:03.746Z,1018.81
2018-05-29T00:09:25.789Z,1018.78
2018-05-29T00:10:47.569Z,1018.78
2018-05-29T00:12:09.606Z,1018.81
2018-05-29T00:13:31.646Z,1018.76
2018-05-29T00:14:53.687Z,1018.76
2018-05-29T00:16:15.470Z,1018.75
2018-05-29T00:17:37.509Z,1018.75
2018-05-29T00:18:59.567Z,1018.75
2018-05-29T00:20:21.346Z,1018.77
2018-05-29T00:21:43.382Z,1018.81
2018-05-29T00:23:05.149Z,1018.79
2018-05-29T00:24:27.199Z,1018.75
2018-05-29T00:25:49.242Z,1018.7
2018-05-29T00:27:11.028Z,1018.75
2018-05-29T00:28:32.853Z,1018.72
2018-05-29T00:29:54.905Z,1018.67
2018-05-29T00:31:16.946Z,1018.64
2018-05-29T00:32:38.731Z,1018.63
2018-05-29T00:34:00.517Z,1018.65
2018-05-29T00:35:22.565Z,1018.58
2018-05-29T00:36:44.632Z,1018.58
2018-05-29T00:38:06.703Z,1018.61
2018-05-29T00:39:28.762Z,1018.57
2018-05-29T00:40:50.271Z,1018.5
2018-05-29T00:42:12.064Z,1018.5
2018-05-29T00:43:33.841Z,1018.49
2018-05-29T00:44:55.874Z,1018.49
2018-05-29T00:46:17.665Z,1018.49
2018-05-29T00:47:39.701Z,1018.52
2018-05-29T00:49:01.217Z,1018.48
2018-05-29T00:50:23.250Z,1018.44
2018-05-29T00:51:45.033Z,1018.44
2018-05-29T00:53:06.815Z,1018.52
2018-05-29T00:54:28.597Z,1018.48
2018-05-29T00:55:50.637Z,1018.45
2018-05-29T00:57:12.688Z,1018.4
2018-05-29T00:58:34.488Z,1018.35
2018-05-29T00:59:56.276Z,1018.34
2018-05-29T01:01:18.060Z,1018.41
2018-05-29T01:02:40.150Z,1018.33
2018-05-29T01:04:02.247Z,1018.31
2018-05-29T01:05:24.328Z,1018.28
2018-05-29T01:06:46.382Z,1018.24
2018-05-29T01:08:08.192Z,1018.23
2018-05-29T01:09:30.238Z,1018.3
2018-05-29T01:10:51.758Z,1018.28
2018-05-29T01:12:13.544Z,1018.25
2018-05-29T01:13:35.401Z,1018.19
2018-05-29T01:14:57.184Z,1018.17
2018-05-29T01:16:18.976Z,1018.13
2018-05-29T01:17:41.070Z,1018.08
2018-05-29T01:19:03.118Z,1018.05
2018-05-29T01:20:25.175Z,1018.04
2018-05-29T01:21:47.220Z,1018.03
2018-05-29T01:23:09.264Z,1018.05
2018-05-29T01:24:31.054Z,1018.03
2018-05-29T01:25:52.845Z,1017.99
2018-05-29T01:27:14.644Z,1017.95
2018-05-29T01:28:36.469Z,1018.01
2018-05-29T01:29:58.305Z,1017.97
2018-05-29T01:31:20.341Z,1017.92
2018-05-29T01:32:42.376Z,1017.91
2018-05-29T01:34:04.426Z,1017.91
2018-05-29T01:35:26.267Z,1017.88
2018-05-29T01:36:48.308Z,1017.85
2018-05-29T01:38:10.091Z,1017.86
2018-05-29T01:39:32.132Z,1017.9
2018-05-29T01:40:54.175Z,1017.9
2018-05-29T01:42:15.957Z,1017.87
2018-05-29T01:43:37.739Z,1017.86
2018-05-29T01:44:59.517Z,1017.8
2018-05-29T01:46:21.287Z,1017.82
2018-05-29T01:47:43.070Z,1017.89
2018-05-29T01:49:04.841Z,1017.95
2018-05-29T01:50:26.624Z,1017.92
2018-05-29T01:51:48.665Z,1017.85
2018-05-29T01:53:10.716Z,1017.83
2018-05-29T01:54:32.507Z,1017.85
2018-05-29T01:55:54.287Z,1017.86
2018-05-29T01:57:16.083Z,1017.83
2018-05-29T01:58:38.137Z,1017.83
2018-05-29T02:00:00.190Z,1017.85
2018-05-29T02:01:21.699Z,1017.83
2018-05-29T02:02:43.483Z,1017.84
2018-05-29T02:04:05.268Z,1017.8
2018-05-29T02:05:27.577Z,1017.8
2018-05-29T02:06:49.625Z,1017.77
2018-05-29T02:08:11.676Z,1017.78
2018-05-29T02:09:33.474Z,1017.78
2018-05-29T02:10:54.991Z,1017.81
2018-05-29T02:12:16.769Z,1017.81
2018-05-29T02:13:38.806Z,1017.76
2018-05-29T02:15:00.855Z,1017.76
2018-05-29T02:16:22.896Z,1017.74
2018-05-29T02:17:44.674Z,1017.72
2018-05-29T02:19:06.453Z,1017.73
2018-05-29T02:20:28.023Z,1017.72
2018-05-29T02:21:50.065Z,1017.68
2018-05-29T02:23:11.865Z,1017.65
2018-05-29T02:24:33.893Z,1017.68
2018-05-29T02:25:55.941Z,1017.67
2018-05-29T02:27:17.977Z,1017.67
2018-05-29T02:28:40.014Z,1017.67
2018-05-29T02:30:01.281Z,1017.69
2018-05-29T02:31:23.066Z,1017.69
2018-05-29T02:32:45.113Z,1017.66
2018-05-29T02:34:06.899Z,1017.64
2018-05-29T02:35:28.942Z,1017.68
2018-05-29T02:36:51.012Z,1017.61
2018-05-29T02:38:12.819Z,1017.63
2018-05-29T02:39:34.877Z,1017.57
2018-05-29T02:40:56.922Z,1017.6
2018-05-29T02:42:18.714Z,1017.59
2018-05-29T02:43:40.740Z,1017.61
2018-05-29T02:45:02.782Z,1017.57
2018-05-29T02:46:24.831Z,1017.57
2018-05-29T02:47:46.873Z,1017.56
2018-05-29T02:49:08.910Z,1017.58
2018-05-29T02:50:30.967Z,1017.54
2018-05-29T02:51:53.013Z,1017.54
2018-05-29T02:53:15.088Z,1017.58
2018-05-29T02:54:36.865Z,1017.61
2018-05-29T02:55:58.646Z,1017.61
2018-05-29T02:57:20.427Z,1017.64
2018-05-29T02:58:42.536Z,1017.63
2018-05-29T03:00:04.320Z,1017.61
2018-05-29T03:01:26.356Z,1017.61
2018-05-29T03:02:48.125Z,1017.6
2018-05-29T03:04:10.174Z,1017.65
2018-05-29T03:05:32.221Z,1017.59
2018-05-29T03:06:53.733Z,1017.63
2018-05-29T03:08:15.774Z,1017.65
2018-05-29T03:09:37.543Z,1017.68
2018-05-29T03:10:59.310Z,1017.66
2018-05-29T03:12:21.106Z,1017.64
2018-05-29T03:13:43.150Z,1017.69
2018-05-29T03:15:04.672Z,1017.7
2018-05-29T03:16:26.189Z,1017.73
2018-05-29T03:17:47.974Z,1017.72
2018-05-29T03:19:09.766Z,1017.73
2018-05-29T03:20:31.817Z,1017.71
2018-05-29T03:21:53.333Z,1017.7
2018-05-29T03:23:15.112Z,1017.69
2018-05-29T03:24:37.152Z,1017.71
2018-05-29T03:25:59.189Z,1017.67
2018-05-29T03:27:21.249Z,1017.62
2018-05-29T03:28:43.293Z,1017.6
2018-05-29T03:30:05.334Z,1017.63
2018-05-29T03:31:27.114Z,1017.6
2018-05-29T03:32:49.166Z,1017.62
2018-05-29T03:34:11.218Z,1017.63
2018-05-29T03:35:33.393Z,1017.58
2018-05-29T03:36:55.432Z,1017.63
2018-05-29T03:38:17.481Z,1017.63
2018-05-29T03:39:39.528Z,1017.62
2018-05-29T03:41:01.054Z,1017.64
2018-05-29T03:42:23.114Z,1017.66
2018-05-29T03:43:45.157Z,1017.66
2018-05-29T03:45:07.197Z,1017.7
2018-05-29T03:46:28.972Z,1017.72
2018-05-29T03:47:51.017Z,1017.72
2018-05-29T03:49:12.814Z,1017.73
2018-05-29T03:50:34.601Z,1017.74
2018-05-29T03:51:56.375Z,1017.73
2018-05-29T03:53:18.432Z,1017.71
2018-05-29T03:54:40.489Z,1017.71
2018-05-29T03:56:02.269Z,1017.73
2018-05-29T03:57:24.049Z,1017.78
2018-05-29T03:58:46.116Z,1017.78
2018-05-29T04:00:08.156Z,1017.8
2018-05-29T04:01:29.992Z,1017.82
2018-05-29T04:02:52.036Z,1017.76
2018-05-29T04:04:14.090Z,1017.78
2018-05-29T04:05:36.202Z,1017.84
2018-05-29T04:06:58.235Z,1017.81
2018-05-29T04:08:20.022Z,1017.81
2018-05-29T04:09:42.055Z,1017.79
2018-05-29T04:11:03.927Z,1017.8
2018-05-29T04:12:25.970Z,1017.77
2018-05-29T04:13:47.994Z,1017.77
2018-05-29T04:15:10.043Z,1017.81
2018-05-29T04:16:31.836Z,1017.83
2018-05-29T04:17:53.358Z,1017.81
2018-05-29T04:19:15.402Z,1017.82
2018-05-29T04:20:37.449Z,1017.79
2018-05-29T04:21:59.495Z,1017.82
2018-05-29T04:23:21.525Z,1017.78
2018-05-29T04:24:43.572Z,1017.81
2018-05-29T04:26:05.082Z,1017.83
2018-05-29T04:27:26.615Z,1017.87
2018-05-29T04:28:48.674Z,1017.85
2018-05-29T04:30:10.473Z,1017.89
2018-05-29T04:31:31.991Z,1017.84
2018-05-29T04:32:53.777Z,1017.81
2018-05-29T04:34:15.831Z,1017.83
2018-05-29T04:35:37.646Z,1017.87
2018-05-29T04:36:59.693Z,1017.91
2018-05-29T04:38:21.740Z,1017.92
2018-05-29T04:39:42.986Z,1017.94
2018-05-29T04:41:05.067Z,1017.95
2018-05-29T04:42:27.120Z,1017.96
2018-05-29T04:43:49.175Z,1018
2018-05-29T04:45:10.971Z,1017.98
2018-05-29T04:46:32.743Z,1017.96
2018-05-29T04:47:54.788Z,1017.95
2018-05-29T04:49:16.840Z,1017.91
2018-05-29T04:50:38.967Z,1017.95
2018-05-29T04:52:00.751Z,1017.97
2018-05-29T04:53:22.805Z,1017.94
2018-05-29T04:54:44.587Z,1017.91
2018-05-29T04:56:06.380Z,1018
2018-05-29T04:57:28.439Z,1017.96
2018-05-29T04:58:50.487Z,1018.02
2018-05-29T05:00:12.542Z,1017.97
2018-05-29T05:01:34.330Z,1018.01
2018-05-29T05:02:56.368Z,1017.99
2018-05-29T05:04:18.425Z,1018.03
2018-05-29T05:05:40.486Z,1018.04
2018-05-29T05:07:02.528Z,1018
2018-05-29T05:08:24.563Z,1018.01
2018-05-29T05:09:46.611Z,1018.02
2018-05-29T05:11:07.878Z,1018.03
2018-05-29T05:12:29.941Z,1018.05
2018-05-29T05:13:51.470Z,1017.99
2018-05-29T05:15:13.264Z,1018.01
2018-05-29T05:16:35.328Z,1018
2018-05-29T05:17:57.371Z,1018
2018-05-29T05:19:19.426Z,1018.01
2018-05-29T05:20:41.473Z,1017.99
2018-05-29T05:22:03.542Z,1018.02
2018-05-29T05:23:25.599Z,1018.02
2018-05-29T05:24:47.521Z,1018.05
2018-05-29T05:26:09.576Z,1018.05
2018-05-29T05:27:31.630Z,1018.03
2018-05-29T05:28:53.427Z,1018.02
2018-05-29T05:30:15.499Z,1018.07
2018-05-29T05:31:37.553Z,1018.09
2018-05-29T05:32:59.636Z,1018.11
2018-05-29T05:34:21.437Z,1018.14
2018-05-29T05:35:43.228Z,1018.1
2018-05-29T05:37:05.279Z,1018.12
2018-05-29T05:38:27.332Z,1018.14
2018-05-29T05:39:49.391Z,1018.13
2018-05-29T05:41:11.456Z,1018.14
2018-05-29T05:42:33.510Z,1018.21
2018-05-29T05:43:55.586Z,1018.23
2018-05-29T05:45:17.649Z,1018.18
2018-05-29T05:46:39.449Z,1018.15
2018-05-29T05:48:00.989Z,1018.15
2018-05-29T05:49:22.523Z,1018.19
2018-05-29T05:50:44.307Z,1018.19
2018-05-29T05:52:06.391Z,1018.18
2018-05-29T05:53:28.185Z,1018.2
2018-05-29T05:54:50.234Z,1018.2
2018-05-29T05:56:12.021Z,1018.27
2018-05-29T05:57:33.811Z,1018.24
2018-05-29T05:58:55.131Z,1018.32
2018-05-29T06:00:16.937Z,1018.29
2018-05-29T06:01:38.996Z,1018.31
2018-05-29T06:03:00.802Z,1018.34
2018-05-29T06:04:22.874Z,1018.34
2018-05-29T06:05:44.935Z,1018.34
2018-05-29T06:07:06.800Z,1018.35
2018-05-29T06:08:28.819Z,1018.36
2018-05-29T06:09:50.624Z,1018.34
2018-05-29T06:11:12.731Z,1018.36
2018-05-29T06:12:34.524Z,1018.37
2018-05-29T06:13:56.589Z,1018.34
2018-05-29T06:15:18.645Z,1018.34
2018-05-29T06:16:40.715Z,1018.39
2018-05-29T06:18:02.527Z,1018.34
2018-05-29T06:19:24.598Z,1018.29
2018-05-29T06:20:46.649Z,1018.27
2018-05-29T06:22:08.694Z,1018.31
2018-05-29T06:23:30.760Z,1018.32
2018-05-29T06:24:52.820Z,1018.31
2018-05-29T06:26:14.882Z,1018.3
2018-05-29T06:27:36.991Z,1018.29
2018-05-29T06:28:59.049Z,1018.34
2018-05-29T06:30:20.870Z,1018.34
2018-05-29T06:31:42.934Z,1018.31
2018-05-29T06:33:04.994Z,1018.3
2018-05-29T06:34:26.801Z,1018.3
2018-05-29T06:35:48.855Z,1018.29
2018-05-29T06:37:10.644Z,1018.32
2018-05-29T06:38:32.206Z,1018.31
2018-05-29T06:39:54.398Z,1018.32
2018-05-29T06:41:16.457Z,1018.29
2018-05-29T06:42:38.244Z,1018.31
2018-05-29T06:44:00.032Z,1018.28
2018-05-29T06:45:22.105Z,1018.33
2018-05-29T06:46:44.180Z,1018.3
2018-05-29T06:48:06.252Z,1018.31
2018-05-29T06:49:28.036Z,1018.31
2018-05-29T06:50:49.586Z,1018.22
2018-05-29T06:52:11.698Z,1018.16
2018-05-29T06:53:33.848Z,1018.16
2018-05-29T06:54:55.906Z,1018.15
2018-05-29T06:56:17.967Z,1018.17
2018-05-29T06:57:40.033Z,1018.16
2018-05-29T06:59:02.222Z,1018.17
2018-05-29T07:00:24.294Z,1018.13
2018-05-29T07:01:46.375Z,1018.15
2018-05-29T07:03:08.199Z,1018.1
2018-05-29T07:04:30.259Z,1018.12
2018-05-29T07:05:52.336Z,1018.13
2018-05-29T07:07:14.447Z,1018.16
2018-05-29T07:08:35.974Z,1018.13
2018-05-29T07:09:58.033Z,1018.14
2018-05-29T07:11:19.848Z,1018.16
2018-05-29T07:12:41.926Z,1018.19
2018-05-29T07:14:03.998Z,1018.17
2018-05-29T07:15:26.061Z,1018.14
2018-05-29T07:16:48.126Z,1018.1
2018-05-29T07:18:10.193Z,1018.11
2018-05-29T07:19:32.000Z,1018.08
2018-05-29T07:20:54.192Z,1018.07
2018-05-29T07:22:16.273Z,1018.06
2018-05-29T07:23:37.801Z,1018.06
2018-05-29T07:24:59.615Z,1018.06
2018-05-29T07:26:21.692Z,1018.03
2018-05-29T07:27:43.766Z,1018
2018-05-29T07:29:05.336Z,1018.05
2018-05-29T07:30:27.152Z,1018.07
2018-05-29T07:31:49.218Z,1018.07
2018-05-29T07:33:11.277Z,1018.05
2018-05-29T07:34:33.342Z,1018.04
2018-05-29T07:35:55.146Z,1018.08
2018-05-29T07:37:16.672Z,1018.13
2018-05-29T07:38:38.473Z,1018.1
2018-05-29T07:40:00.400Z,1018.08
2018-05-29T07:41:22.496Z,1018.07
2018-05-29T07:42:44.294Z,1018.07
2018-05-29T07:44:06.344Z,1018.04
2018-05-29T07:45:28.420Z,1018.02
2018-05-29T07:46:50.488Z,1018.05
2018-05-29T07:48:12.562Z,1018.06
2018-05-29T07:49:34.123Z,1018.05
2018-05-29T07:50:56.202Z,1017.99
2018-05-29T07:52:18.011Z,1017.99
2018-05-29T07:53:40.093Z,1018
2018-05-29T07:55:01.903Z,1018.01
2018-05-29T07:56:23.714Z,1017.99
2018-05-29T07:57:45.531Z,1017.93
2018-05-29T07:59:07.606Z,1017.95
2018-05-29T08:00:29.146Z,1017.97
2018-05-29T08:01:50.952Z,1017.94
2018-05-29T08:03:12.753Z,1017.98
2018-05-29T08:04:34.820Z,1017.95
2018-05-29T08:05:56.377Z,1017.92
2018-05-29T08:07:18.456Z,1017.84
2018-05-29T08:08:40.282Z,1017.75
2018-05-29T08:10:02.088Z,1017.71
2018-05-29T08:11:24.160Z,1017.66
2018-05-29T08:12:46.210Z,1017.61
2018-05-29T08:14:08.266Z,1017.49
2018-05-29T08:15:30.324Z,1017.38
2018-05-29T08:16:52.396Z,1017.41
2018-05-29T08:18:13.666Z,1017.41
2018-05-29T08:19:35.490Z,1017.39
2018-05-29T08:20:57.569Z,1017.33
2018-05-29T08:22:19.099Z,1017.28
2018-05-29T08:23:41.159Z,1017.26
2018-05-29T08:25:03.228Z,1017.23
2018-05-29T08:26:25.296Z,1017.27
2018-05-29T08:27:47.349Z,1017.25
2018-05-29T08:29:08.885Z,1017.25
2018-05-29T08:30:30.680Z,1017.3
2018-05-29T08:31:52.230Z,1017.26
2018-05-29T08:33:14.274Z,1017.26
2018-05-29T08:34:36.366Z,1017.26
2018-05-29T08:35:58.423Z,1017.23
2018-05-29T08:37:20.224Z,1017.23
2018-05-29T08:38:42.285Z,1017.25
2018-05-29T08:40:04.369Z,1017.22
2018-05-29T08:41:26.169Z,1017.21
2018-05-29T08:42:47.983Z,1017.15
2018-05-29T08:44:09.789Z,1017.19
2018-05-29T08:45:31.574Z,1017.09
2018-05-29T08:46:53.346Z,1017.17
2018-05-29T08:48:15.419Z,1017.15
2018-05-29T08:49:37.471Z,1017.09
2018-05-29T08:50:59.534Z,1017.11
2018-05-29T08:52:21.597Z,1017.09
2018-05-29T08:53:43.664Z,1017.01
2018-05-29T08:55:05.711Z,1017.01
2018-05-29T08:56:27.768Z,1016.96
2018-05-29T08:57:49.065Z,1016.98
2018-05-29T08:59:11.125Z,1016.97
2018-05-29T09:00:33.190Z,1016.96
2018-05-29T09:01:55.257Z,1016.93
2018-05-29T09:03:16.803Z,1016.93
2018-05-29T09:04:38.861Z,1016.95
2018-05-29T09:06:00.920Z,1016.9
2018-05-29T09:07:22.727Z,1016.87
2018-05-29T09:08:44.797Z,1016.86
2018-05-29T09:10:06.850Z,1016.82
2018-05-29T09:11:28.890Z,1016.77
2018-05-29T09:12:50.800Z,1016.83
2018-05-29T09:14:12.934Z,1016.8
2018-05-29T09:15:34.996Z,1016.83
2018-05-29T09:16:56.795Z,1016.83
2018-05-29T09:18:18.841Z,1016.82
2018-05-29T09:19:40.886Z,1016.76
2018-05-29T09:21:02.859Z,1016.73
2018-05-29T09:22:24.911Z,1016.73
2018-05-29T09:23:46.992Z,1016.73
2018-05-29T09:25:08.269Z,1016.75
2018-05-29T09:26:30.347Z,1016.72
2018-05-29T09:27:52.424Z,1016.74
2018-05-29T09:29:14.224Z,1016.71
2018-05-29T09:30:35.795Z,1016.72
2018-05-29T09:31:57.923Z,1016.66
2018-05-29T09:33:19.513Z,1016.65
2018-05-29T09:34:41.579Z,1016.67
2018-05-29T09:36:03.632Z,1016.64
2018-05-29T09:37:25.735Z,1016.69
2018-05-29T09:38:47.846Z,1016.68
2018-05-29T09:40:09.659Z,1016.66
2018-05-29T09:41:31.566Z,1016.66
2018-05-29T09:42:53.213Z,1016.61
2018-05-29T09:44:15.031Z,1016.57
2018-05-29T09:45:37.095Z,1016.6
2018-05-29T09:46:59.447Z,1016.54
2018-05-29T09:48:21.568Z,1016.57
2018-05-29T09:49:43.688Z,1016.58
2018-05-29T09:51:05.751Z,1016.56
2018-05-29T09:52:27.565Z,1016.48
2018-05-29T09:53:49.693Z,1016.46
2018-05-29T09:55:11.776Z,1016.47
2018-05-29T09:56:33.562Z,1016.36
2018-05-29T09:57:55.607Z,1016.34
2018-05-29T09:59:17.401Z,1016.32
2018-05-29T10:00:39.199Z,1016.41
2018-05-29T10:02:01.268Z,1016.32
2018-05-29T10:03:23.343Z,1016.32
2018-05-29T10:04:45.420Z,1016.28
2018-05-29T10:06:07.532Z,1016.28
2018-05-29T10:07:29.333Z,1016.25
2018-05-29T10:08:51.400Z,1016.2
2018-05-29T10:10:13.451Z,1016.22
2018-05-29T10:11:35.277Z,1016.17
2018-05-29T10:12:57.339Z,1016.18
2018-05-29T10:14:19.604Z,1016.24
2018-05-29T10:15:41.130Z,1016.14
2018-05-29T10:17:02.712Z,1016.18
2018-05-29T10:18:24.924Z,1016.18
2018-05-29T10:19:46.990Z,1016.17
2018-05-29T10:21:09.049Z,1016.08
2018-05-29T10:22:31.098Z,1016.04
2018-05-29T10:23:53.156Z,1016.04
2018-05-29T10:25:14.971Z,1016.04
2018-05-29T10:26:37.023Z,1016.01
2018-05-29T10:27:59.080Z,1015.96
2018-05-29T10:29:20.871Z,1015.91
2018-05-29T10:30:42.936Z,1015.92
2018-05-29T10:32:04.592Z,1015.89
2018-05-29T10:33:26.633Z,1015.89
2018-05-29T10:34:48.692Z,1015.91
2018-05-29T10:36:10.218Z,1015.9
2018-05-29T10:37:31.737Z,1015.95
2018-05-29T10:38:53.542Z,1015.85
2018-05-29T10:40:15.347Z,1015.84
2018-05-29T10:41:37.421Z,1015.84
2018-05-29T10:42:59.482Z,1015.82
2018-05-29T10:44:21.017Z,1015.89
2018-05-29T10:45:42.838Z,1015.79
2018-05-29T10:47:05.048Z,1015.75
2018-05-29T10:48:27.107Z,1015.78
2018-05-29T10:49:49.184Z,1015.72
2018-05-29T10:51:10.727Z,1015.71
2018-05-29T10:52:32.873Z,1015.66
2018-05-29T10:53:54.727Z,1015.7
2018-05-29T10:55:16.781Z,1015.71
2018-05-29T10:56:38.853Z,1015.69
2018-05-29T10:58:00.932Z,1015.66
2018-05-29T10:59:22.733Z,1015.71
2018-05-29T11:00:44.527Z,1015.62
2018-05-29T11:02:06.604Z,1015.59
2018-05-29T11:03:28.166Z,1015.61
2018-05-29T11:04:50.236Z,1015.55
2018-05-29T11:06:12.324Z,1015.63
2018-05-29T11:07:34.395Z,1015.57
2018-05-29T11:08:56.460Z,1015.59
2018-05-29T11:10:18.527Z,1015.59
2018-05-29T11:11:40.582Z,1015.59
2018-05-29T11:13:02.664Z,1015.42
2018-05-29T11:14:24.723Z,1015.56
2018-05-29T11:15:46.795Z,1015.48
2018-05-29T11:17:08.849Z,1015.38
2018-05-29T11:18:30.649Z,1015.41
2018-05-29T11:19:52.697Z,1015.45
2018-05-29T11:21:14.959Z,1015.43
2018-05-29T11:22:36.758Z,1015.39
2018-05-29T11:23:58.312Z,1015.36
2018-05-29T11:25:20.366Z,1015.38
2018-05-29T11:26:42.445Z,1015.44
2018-05-29T11:28:04.245Z,1015.4
2018-05-29T11:29:25.813Z,1015.28
2018-05-29T11:30:47.866Z,1015.34
2018-05-29T11:32:09.694Z,1015.21
2018-05-29T11:33:31.747Z,1015.25
2018-05-29T11:34:53.817Z,1015.31
2018-05-29T11:36:15.869Z,1015.29
2018-05-29T11:37:37.440Z,1015.29
2018-05-29T11:38:59.498Z,1015.34
2018-05-29T11:40:21.568Z,1015.3
2018-05-29T11:41:43.652Z,1015.33
2018-05-29T11:43:05.723Z,1015.27
2018-05-29T11:44:27.804Z,1015.25
2018-05-29T11:45:49.611Z,1015.21
2018-05-29T11:47:11.407Z,1015.25
2018-05-29T11:48:33.538Z,1015.16
2018-05-29T11:49:55.707Z,1015.21
2018-05-29T11:51:17.498Z,1015.18
2018-05-29T11:52:39.608Z,1015.08
2018-05-29T11:54:01.686Z,1015.07
2018-05-29T11:55:23.206Z,1015.05
2018-05-29T11:56:44.742Z,1015.06
2018-05-29T11:58:06.816Z,1015.13
2018-05-29T11:59:28.893Z,1015.08
2018-05-29T12:00:50.953Z,1015.04
2018-05-29T12:02:13.018Z,1015.06
2018-05-29T12:03:35.093Z,1015.03
2018-05-29T12:04:57.159Z,1015.03
2018-05-29T12:06:19.240Z,1015.01
2018-05-29T12:07:40.793Z,1014.96
2018-05-29T12:09:02.325Z,1015.04
2018-05-29T12:10:24.403Z,1015.09
2018-05-29T12:11:46.465Z,1015.14
2018-05-29T12:13:08.270Z,1015.07
2018-05-29T12:14:30.334Z,1015
2018-05-29T12:15:52.391Z,1014.97
2018-05-29T12:17:14.194Z,1015.02
2018-05-29T12:18:35.989Z,1015.01
2018-05-29T12:19:57.782Z,1014.98
2018-05-29T12:21:19.829Z,1014.96
2018-05-29T12:22:41.626Z,1014.98
2018-05-29T12:24:03.444Z,1014.84
2018-05-29T12:25:25.495Z,1014.82
2018-05-29T12:26:47.557Z,1014.78
2018-05-29T12:28:09.733Z,1014.69
2018-05-29T12:29:32.110Z,1014.68
2018-05-29T12:30:53.923Z,1014.73
2018-05-29T12:32:16.019Z,1014.71
2018-05-29T12:33:38.099Z,1014.68
2018-05-29T12:35:00.161Z,1014.64
2018-05-29T12:36:21.963Z,1014.66
2018-05-29T12:37:43.756Z,1014.71
2018-05-29T12:39:05.544Z,1014.7
2018-05-29T12:40:27.726Z,1014.82
2018-05-29T12:41:49.422Z,1014.77
2018-05-29T12:43:11.238Z,1014.71
2018-05-29T12:44:33.339Z,1014.65
2018-05-29T12:45:55.410Z,1014.63
2018-05-29T12:47:17.392Z,1014.63
2018-05-29T12:48:39.202Z,1014.8
2018-05-29T12:50:01.078Z,1014.66
2018-05-29T12:51:22.905Z,1014.71
2018-05-29T12:52:44.741Z,1014.7
2018-05-29T12:54:06.274Z,1014.68
2018-05-29T12:55:27.844Z,1014.65
2018-05-29T12:56:49.901Z,1014.62
2018-05-29T12:58:11.965Z,1014.57
2018-05-29T12:59:33.527Z,1014.51
2018-05-29T13:00:54.817Z,1014.53
2018-05-29T13:02:16.396Z,1014.45
2018-05-29T13:03:38.253Z,1014.42
2018-05-29T13:05:00.013Z,1014.41
2018-05-29T13:06:22.086Z,1014.4
2018-05-29T13:07:43.893Z,1014.49
2018-05-29T13:09:05.966Z,1014.41
2018-05-29T13:10:27.540Z,1014.44
2018-05-29T13:11:49.622Z,1014.39
2018-05-29T13:13:11.172Z,1014.41
2018-05-29T13:14:33.003Z,1014.37
2018-05-29T13:15:55.123Z,1014.36
2018-05-29T13:17:17.193Z,1014.33
2018-05-29T13:18:39.029Z,1014.31
2018-05-29T13:20:01.078Z,1014.27
2018-05-29T13:21:22.909Z,1014.29
2018-05-29T13:22:44.975Z,1014.26
2018-05-29T13:24:06.776Z,1014.28
2018-05-29T13:25:28.331Z,1014.25
2018-05-29T13:26:50.147Z,1014.19
2018-05-29T13:28:12.342Z,1014.2
2018-05-29T13:29:34.170Z,1014.26
2018-05-29T13:30:56.250Z,1014.15
2018-05-29T13:32:18.323Z,1014.16
2018-05-29T13:33:40.220Z,1014.1
2018-05-29T13:35:02.047Z,1014.02
2018-05-29T13:36:24.294Z,1014.07
2018-05-29T13:37:46.123Z,1014
2018-05-29T13:39:08.213Z,1014.07
2018-05-29T13:40:30.334Z,1014.05
2018-05-29T13:41:52.433Z,1013.95
2018-05-29T13:43:14.225Z,1013.93
2018-05-29T13:44:36.053Z,1014.11
2018-05-29T13:45:58.132Z,1014.02
2018-05-29T13:47:19.954Z,1014.04
2018-05-29T13:48:41.787Z,1014
2018-05-29T13:50:03.833Z,1013.92
2018-05-29T13:51:25.368Z,1013.85
2018-05-29T13:52:47.228Z,1013.87
2018-05-29T13:54:09.044Z,1013.81
2018-05-29T13:55:30.934Z,1013.76
2018-05-29T13:56:53.027Z,1013.85
2018-05-29T13:58:15.097Z,1013.86
2018-05-29T13:59:37.160Z,1013.84
2018-05-29T14:00:58.709Z,1013.87
2018-05-29T14:02:20.833Z,1013.81
2018-05-29T14:03:42.907Z,1013.81
2018-05-29T14:05:05.004Z,1013.81
2018-05-29T14:06:26.803Z,1013.75
2018-05-29T14:07:48.862Z,1013.79
2018-05-29T14:09:10.923Z,1013.81
2018-05-29T14:10:32.752Z,1013.76
2018-05-29T14:11:54.829Z,1013.75
2018-05-29T14:13:16.392Z,1013.76
2018-05-29T14:14:37.939Z,1013.72
2018-05-29T14:16:00.197Z,1013.7
2018-05-29T14:17:22.286Z,1013.71
2018-05-29T14:18:44.125Z,1013.69
2018-05-29T14:20:05.957Z,1013.58
2018-05-29T14:21:27.829Z,1013.55
2018-05-29T14:22:49.646Z,1013.61
2018-05-29T14:24:11.462Z,1013.58
2018-05-29T14:25:33.283Z,1013.59
2018-05-29T14:26:55.104Z,1013.6
2018-05-29T14:28:17.171Z,1013.58
2018-05-29T14:29:38.983Z,1013.6
2018-05-29T14:31:00.798Z,1013.68
2018-05-29T14:32:22.875Z,1013.81
2018-05-29T14:33:44.678Z,1013.69
2018-05-29T14:35:06.482Z,1013.64
2018-05-29T14:36:28.276Z,1013.59
2018-05-29T14:37:50.385Z,1013.56
2018-05-29T14:39:12.448Z,1013.55
2018-05-29T14:40:34.534Z,1013.56
2018-05-29T14:41:56.335Z,1013.53
2018-05-29T14:43:18.409Z,1013.51
2018-05-29T14:44:40.529Z,1013.43
2018-05-29T14:46:02.616Z,1013.48
2018-05-29T14:47:24.442Z,1013.4
2018-05-29T14:48:46.509Z,1013.32
2018-05-29T14:50:08.601Z,1013.25
2018-05-29T14:51:30.409Z,1013.28
2018-05-29T14:52:52.231Z,1013.27
2018-05-29T14:54:14.302Z,1013.18
2018-05-29T14:55:36.109Z,1013.24
2018-05-29T14:56:57.897Z,1013.21
2018-05-29T14:58:19.995Z,1013.17
2018-05-29T14:59:41.832Z,1013.15
2018-05-29T15:01:03.898Z,1013.19
2018-05-29T15:02:25.730Z,1013.21
2018-05-29T15:03:47.807Z,1013.25
2018-05-29T15:05:09.860Z,1013.24
2018-05-29T15:06:31.952Z,1013.23
2018-05-29T15:07:54.023Z,1013.19
2018-05-29T15:09:16.087Z,1013.2
2018-05-29T15:10:38.158Z,1013.19
2018-05-29T15:11:59.991Z,1013.23
2018-05-29T15:13:22.078Z,1013.22
2018-05-29T15:14:43.935Z,1013.21
2018-05-29T15:16:05.723Z,1013.13
2018-05-29T15:17:27.798Z,1013.07
2018-05-29T15:18:49.881Z,1013.03
2018-05-29T15:20:11.424Z,1013.06
2018-05-29T15:21:33.493Z,1013
2018-05-29T15:22:55.584Z,1013
2018-05-29T15:24:17.408Z,1012.97
2018-05-29T15:25:39.292Z,1013
2018-05-29T15:27:01.418Z,1012.95
2018-05-29T15:28:23.254Z,1012.94
2018-05-29T15:29:45.335Z,1012.98
2018-05-29T15:31:07.172Z,1012.88
2018-05-29T15:32:28.731Z,1012.82
2018-05-29T15:33:50.815Z,1012.84
2018-05-29T15:35:12.370Z,1012.83
2018-05-29T15:36:34.424Z,1012.75
2018-05-29T15:37:56.261Z,1012.85
2018-05-29T15:39:17.790Z,1012.77
2018-05-29T15:40:39.611Z,1012.83
2018-05-29T15:42:01.907Z,1012.77
2018-05-29T15:43:23.981Z,1012.77
2018-05-29T15:44:45.813Z,1012.75
2018-05-29T15:46:07.937Z,1012.85
2018-05-29T15:47:30.015Z,1012.83
2018-05-29T15:48:52.097Z,1012.73
2018-05-29T15:50:13.937Z,1012.64
2018-05-29T15:51:36.024Z,1012.69
2018-05-29T15:52:58.152Z,1012.78
2018-05-29T15:54:20.366Z,1012.67
2018-05-29T15:55:42.456Z,1012.7
2018-05-29T15:57:04.538Z,1012.66
2018-05-29T15:58:26.640Z,1012.68
2018-05-29T15:59:48.188Z,1012.67
2018-05-29T16:01:10.448Z,1012.65
2018-05-29T16:02:32.259Z,1012.66
2018-05-29T16:03:54.339Z,1012.63
2018-05-29T16:05:16.406Z,1012.65
2018-05-29T16:06:38.479Z,1012.71
2018-05-29T16:08:00.291Z,1012.71
2018-05-29T16:09:21.849Z,1012.68
2018-05-29T16:10:43.946Z,1012.69
2018-05-29T16:12:06.013Z,1012.72
2018-05-29T16:13:27.847Z,1012.68
2018-05-29T16:14:49.926Z,1012.65
2018-05-29T16:16:12.005Z,1012.61
2018-05-29T16:17:33.813Z,1012.62
2018-05-29T16:18:55.964Z,1012.56
2018-05-29T16:20:18.064Z,1012.58
2018-05-29T16:21:40.147Z,1012.58
2018-05-29T16:23:01.959Z,1012.59
2018-05-29T16:24:23.771Z,1012.55
2018-05-29T16:25:45.851Z,1012.54
2018-05-29T16:27:07.930Z,1012.53
2018-05-29T16:28:29.491Z,1012.55
2018-05-29T16:29:51.311Z,1012.55
2018-05-29T16:31:13.406Z,1012.61
2018-05-29T16:32:35.527Z,1012.55
2018-05-29T16:33:57.338Z,1012.53
2018-05-29T16:35:19.434Z,1012.55